sensor_id;sensor_type;location;lat;lon;timestamp;noise_LAeq;noise_LA_min;noise_LA_max;noise_LA01;noise_LA95
45964;Laerm;31671;48.092;11.842;2024-01-16T00:02:05;39.73;28.22;72.40;;
45964;Laerm;31671;48.092;11.842;2024-01-16T00:04:31;30.79;28.40;47.89;;
45964;Laerm;31671;48.092;11.842;2024-01-16T00:06:56;30.60;28.35;49.03;;
45964;Laerm;31671;48.092;11.842;2024-01-16T00:09:22;30.28;28.23;44.86;;
45964;Laerm;31671;48.092;11.842;2024-01-16T00:11:48;32.21;28.41;50.82;;
45964;Laerm;31671;48.092;11.842;2024-01-16T00:14:13;31.63;28.36;54.92;;
45964;Laerm;31671;48.092;11.842;2024-01-16T00:16:45;29.68;27.95;38.03;;
45964;Laerm;31671;48.092;11.842;2024-01-16T00:19:11;29.70;28.34;39.70;;
45964;Laerm;31671;48.092;11.842;2024-01-16T00:21:43;30.33;28.30;46.86;;
45964;Laerm;31671;48.092;11.842;2024-01-16T00:24:09;29.78;28.29;43.56;;
45964;Laerm;31671;48.092;11.842;2024-01-16T00:26:35;30.87;28.06;52.95;;
45964;Laerm;31671;48.092;11.842;2024-01-16T00:29:01;30.50;28.29;48.85;;
45964;Laerm;31671;48.092;11.842;2024-01-16T00:31:26;30.75;28.30;50.06;;
45964;Laerm;31671;48.092;11.842;2024-01-16T00:33:52;29.73;28.20;41.99;;
45964;Laerm;31671;48.092;11.842;2024-01-16T00:36:18;30.29;28.26;48.91;;
45964;Laerm;31671;48.092;11.842;2024-01-16T00:38:43;30.33;28.39;46.38;;
45964;Laerm;31671;48.092;11.842;2024-01-16T00:41:09;29.79;28.45;43.26;;
45964;Laerm;31671;48.092;11.842;2024-01-16T00:43:35;30.47;28.07;50.16;;
45964;Laerm;31671;48.092;11.842;2024-01-16T00:46:01;29.72;28.26;33.51;;
45964;Laerm;31671;48.092;11.842;2024-01-16T00:48:26;31.30;28.33;53.06;;
45964;Laerm;31671;48.092;11.842;2024-01-16T00:50:52;29.70;28.41;33.67;;
45964;Laerm;31671;48.092;11.842;2024-01-16T00:53:18;29.73;28.15;40.92;;
45964;Laerm;31671;48.092;11.842;2024-01-16T00:55:44;30.12;28.55;47.79;;
45964;Laerm;31671;48.092;11.842;2024-01-16T00:58:09;29.82;28.30;34.08;;
45964;Laerm;31671;48.092;11.842;2024-01-16T01:00:35;29.66;28.16;35.14;;
45964;Laerm;31671;48.092;11.842;2024-01-16T01:03:01;29.65;28.31;37.01;;
45964;Laerm;31671;48.092;11.842;2024-01-16T01:05:26;29.60;28.20;41.57;;
45964;Laerm;31671;48.092;11.842;2024-01-16T01:07:52;29.66;28.15;32.77;;
45964;Laerm;31671;48.092;11.842;2024-01-16T01:10:18;31.00;28.46;49.87;;
45964;Laerm;31671;48.092;11.842;2024-01-16T01:12:43;29.71;28.17;34.31;;
45964;Laerm;31671;48.092;11.842;2024-01-16T01:15:09;29.74;28.41;36.04;;
45964;Laerm;31671;48.092;11.842;2024-01-16T01:17:35;29.82;28.55;42.44;;
45964;Laerm;31671;48.092;11.842;2024-01-16T01:20:01;29.75;28.52;35.31;;
45964;Laerm;31671;48.092;11.842;2024-01-16T01:22:26;29.76;28.35;39.28;;
45964;Laerm;31671;48.092;11.842;2024-01-16T01:24:52;29.61;28.31;34.30;;
45964;Laerm;31671;48.092;11.842;2024-01-16T01:27:18;37.78;28.19;66.96;;
45964;Laerm;31671;48.092;11.842;2024-01-16T01:29:43;29.90;28.07;46.97;;
45964;Laerm;31671;48.092;11.842;2024-01-16T01:32:09;30.41;28.41;53.60;;
45964;Laerm;31671;48.092;11.842;2024-01-16T01:34:35;29.64;28.35;32.66;;
45964;Laerm;31671;48.092;11.842;2024-01-16T01:37:00;29.72;28.29;40.70;;
45964;Laerm;31671;48.092;11.842;2024-01-16T01:39:26;29.85;28.49;42.94;;
45964;Laerm;31671;48.092;11.842;2024-01-16T01:41:52;29.62;28.14;31.11;;
45964;Laerm;31671;48.092;11.842;2024-01-16T01:44:17;29.61;28.36;32.00;;
45964;Laerm;31671;48.092;11.842;2024-01-16T01:46:43;29.74;28.24;40.06;;
45964;Laerm;31671;48.092;11.842;2024-01-16T01:49:09;29.67;28.37;42.13;;
45964;Laerm;31671;48.092;11.842;2024-01-16T01:51:36;29.68;28.27;31.74;;
45964;Laerm;31671;48.092;11.842;2024-01-16T01:54:02;29.63;28.31;36.75;;
45964;Laerm;31671;48.092;11.842;2024-01-16T01:56:28;29.71;28.38;34.25;;
45964;Laerm;31671;48.092;11.842;2024-01-16T01:58:54;29.65;28.39;35.63;;
45964;Laerm;31671;48.092;11.842;2024-01-16T02:01:21;30.00;28.29;48.10;;
45964;Laerm;31671;48.092;11.842;2024-01-16T02:03:47;29.64;28.37;30.90;;
45964;Laerm;31671;48.092;11.842;2024-01-16T02:06:14;29.64;28.25;30.82;;
45964;Laerm;31671;48.092;11.842;2024-01-16T02:08:40;29.61;28.24;33.71;;
45964;Laerm;31671;48.092;11.842;2024-01-16T02:11:06;32.41;28.21;57.16;;
45964;Laerm;31671;48.092;11.842;2024-01-16T02:13:31;29.80;28.44;42.02;;
45964;Laerm;31671;48.092;11.842;2024-01-16T02:15:57;29.71;28.53;31.23;;
45964;Laerm;31671;48.092;11.842;2024-01-16T02:18:23;29.80;28.23;40.96;;
45964;Laerm;31671;48.092;11.842;2024-01-16T02:20:48;29.95;28.22;46.44;;
45964;Laerm;31671;48.092;11.842;2024-01-16T02:23:14;29.66;28.14;40.88;;
45964;Laerm;31671;48.092;11.842;2024-01-16T02:25:41;29.57;28.29;30.79;;
45964;Laerm;31671;48.092;11.842;2024-01-16T02:28:07;29.73;28.47;32.20;;
45964;Laerm;31671;48.092;11.842;2024-01-16T02:30:32;29.76;28.36;40.68;;
45964;Laerm;31671;48.092;11.842;2024-01-16T02:32:58;29.79;28.40;41.52;;
45964;Laerm;31671;48.092;11.842;2024-01-16T02:35:24;29.62;28.21;30.79;;
45964;Laerm;31671;48.092;11.842;2024-01-16T02:37:49;29.83;28.43;40.97;;
45964;Laerm;31671;48.092;11.842;2024-01-16T02:40:15;29.78;28.30;42.08;;
45964;Laerm;31671;48.092;11.842;2024-01-16T02:42:41;29.63;28.28;37.72;;
45964;Laerm;31671;48.092;11.842;2024-01-16T02:45:07;29.58;28.42;32.18;;
45964;Laerm;31671;48.092;11.842;2024-01-16T02:47:33;29.64;28.37;33.80;;
45964;Laerm;31671;48.092;11.842;2024-01-16T02:49:59;29.59;28.33;30.61;;
45964;Laerm;31671;48.092;11.842;2024-01-16T02:52:25;29.64;28.43;33.01;;
45964;Laerm;31671;48.092;11.842;2024-01-16T02:54:50;29.76;28.09;41.60;;
45964;Laerm;31671;48.092;11.842;2024-01-16T02:57:16;29.64;28.33;32.63;;
45964;Laerm;31671;48.092;11.842;2024-01-16T02:59:45;29.67;28.37;32.30;;
45964;Laerm;31671;48.092;11.842;2024-01-16T03:02:11;29.57;28.26;31.22;;
45964;Laerm;31671;48.092;11.842;2024-01-16T03:04:37;29.59;27.98;30.80;;
45964;Laerm;31671;48.092;11.842;2024-01-16T03:07:03;29.68;28.13;37.26;;
45964;Laerm;31671;48.092;11.842;2024-01-16T03:09:30;29.64;28.31;36.46;;
45964;Laerm;31671;48.092;11.842;2024-01-16T03:11:56;29.63;28.31;30.85;;
45964;Laerm;31671;48.092;11.842;2024-01-16T03:14:22;29.58;28.33;30.98;;
45964;Laerm;31671;48.092;11.842;2024-01-16T03:16:48;29.60;28.34;30.77;;
45964;Laerm;31671;48.092;11.842;2024-01-16T03:19:13;29.81;28.21;36.76;;
45964;Laerm;31671;48.092;11.842;2024-01-16T03:21:39;29.56;28.27;30.78;;
45964;Laerm;31671;48.092;11.842;2024-01-16T03:24:05;29.46;28.15;30.82;;
45964;Laerm;31671;48.092;11.842;2024-01-16T03:26:31;29.54;28.17;30.81;;
45964;Laerm;31671;48.092;11.842;2024-01-16T03:28:56;29.42;27.99;39.89;;
45964;Laerm;31671;48.092;11.842;2024-01-16T03:31:22;29.51;27.98;31.70;;
45964;Laerm;31671;48.092;11.842;2024-01-16T03:33:48;29.43;28.07;30.53;;
45964;Laerm;31671;48.092;11.842;2024-01-16T03:36:13;29.55;28.40;30.90;;
45964;Laerm;31671;48.092;11.842;2024-01-16T03:38:39;29.47;28.20;31.12;;
45964;Laerm;31671;48.092;11.842;2024-01-16T03:41:05;29.52;28.16;34.84;;
45964;Laerm;31671;48.092;11.842;2024-01-16T03:43:31;29.59;28.23;36.68;;
45964;Laerm;31671;48.092;11.842;2024-01-16T03:45:57;29.51;28.13;30.66;;
45964;Laerm;31671;48.092;11.842;2024-01-16T03:48:22;29.54;28.35;42.58;;
45964;Laerm;31671;48.092;11.842;2024-01-16T03:50:48;29.45;28.15;30.94;;
45964;Laerm;31671;48.092;11.842;2024-01-16T03:53:14;29.53;28.16;35.78;;
45964;Laerm;31671;48.092;11.842;2024-01-16T03:55:39;29.49;28.20;30.65;;
45964;Laerm;31671;48.092;11.842;2024-01-16T03:58:05;29.53;28.23;31.36;;
45964;Laerm;31671;48.092;11.842;2024-01-16T04:00:31;29.62;28.22;44.51;;
45964;Laerm;31671;48.092;11.842;2024-01-16T04:02:57;29.56;28.15;40.09;;
45964;Laerm;31671;48.092;11.842;2024-01-16T04:05:22;29.52;28.33;33.36;;
45964;Laerm;31671;48.092;11.842;2024-01-16T04:07:48;29.58;28.25;30.80;;
45964;Laerm;31671;48.092;11.842;2024-01-16T04:10:14;29.53;28.20;30.81;;
45964;Laerm;31671;48.092;11.842;2024-01-16T04:12:39;29.54;28.28;31.97;;
45964;Laerm;31671;48.092;11.842;2024-01-16T04:15:05;29.58;28.19;30.81;;
45964;Laerm;31671;48.092;11.842;2024-01-16T04:17:31;29.78;28.08;36.25;;
45964;Laerm;31671;48.092;11.842;2024-01-16T04:19:57;29.47;28.10;30.59;;
45964;Laerm;31671;48.092;11.842;2024-01-16T04:22:22;29.58;28.30;31.81;;
45964;Laerm;31671;48.092;11.842;2024-01-16T04:24:48;29.54;28.06;31.46;;
45964;Laerm;31671;48.092;11.842;2024-01-16T04:27:14;29.53;28.28;31.91;;
45964;Laerm;31671;48.092;11.842;2024-01-16T04:29:39;29.58;28.32;36.03;;
45964;Laerm;31671;48.092;11.842;2024-01-16T04:32:05;29.55;28.13;30.73;;
45964;Laerm;31671;48.092;11.842;2024-01-16T04:34:31;29.64;28.21;35.88;;
45964;Laerm;31671;48.092;11.842;2024-01-16T04:36:56;29.67;28.10;34.62;;
45964;Laerm;31671;48.092;11.842;2024-01-16T04:39:22;29.48;28.29;30.59;;
45964;Laerm;31671;48.092;11.842;2024-01-16T04:41:48;29.72;28.34;45.61;;
45964;Laerm;31671;48.092;11.842;2024-01-16T04:44:14;29.76;28.04;36.46;;
45964;Laerm;31671;48.092;11.842;2024-01-16T04:46:40;29.64;28.34;31.75;;
45964;Laerm;31671;48.092;11.842;2024-01-16T04:49:05;29.58;28.25;30.79;;
45964;Laerm;31671;48.092;11.842;2024-01-16T04:51:31;29.80;28.24;34.68;;
45964;Laerm;31671;48.092;11.842;2024-01-16T04:53:57;29.66;28.28;33.61;;
45964;Laerm;31671;48.092;11.842;2024-01-16T04:56:22;29.53;28.12;30.75;;
45964;Laerm;31671;48.092;11.842;2024-01-16T04:58:48;29.46;28.26;31.02;;
45964;Laerm;31671;48.092;11.842;2024-01-16T05:01:14;29.47;28.06;33.58;;
45964;Laerm;31671;48.092;11.842;2024-01-16T05:03:39;29.45;28.11;34.82;;
45964;Laerm;31671;48.092;11.842;2024-01-16T05:06:11;29.57;28.30;37.78;;
45964;Laerm;31671;48.092;11.842;2024-01-16T05:08:37;29.52;28.20;30.93;;
45964;Laerm;31671;48.092;11.842;2024-01-16T05:11:03;29.82;28.18;40.92;;
45964;Laerm;31671;48.092;11.842;2024-01-16T05:13:28;30.20;28.48;41.97;;
45964;Laerm;31671;48.092;11.842;2024-01-16T05:15:54;29.62;28.34;31.45;;
45964;Laerm;31671;48.092;11.842;2024-01-16T05:18:20;29.80;28.30;36.57;;
45964;Laerm;31671;48.092;11.842;2024-01-16T05:20:45;30.02;28.21;35.43;;
45964;Laerm;31671;48.092;11.842;2024-01-16T05:23:11;29.86;28.37;37.88;;
45964;Laerm;31671;48.092;11.842;2024-01-16T05:25:37;29.71;28.14;36.13;;
45964;Laerm;31671;48.092;11.842;2024-01-16T05:28:03;29.65;28.36;31.46;;
45964;Laerm;31671;48.092;11.842;2024-01-16T05:30:28;29.69;28.15;33.54;;
45964;Laerm;31671;48.092;11.842;2024-01-16T05:32:54;29.55;28.09;34.00;;
45964;Laerm;31671;48.092;11.842;2024-01-16T05:35:20;29.63;28.45;35.10;;
45964;Laerm;31671;48.092;11.842;2024-01-16T05:37:46;29.76;28.39;37.77;;
45964;Laerm;31671;48.092;11.842;2024-01-16T05:40:11;30.37;28.24;43.58;;
45964;Laerm;31671;48.092;11.842;2024-01-16T05:42:38;30.15;28.32;42.85;;
45964;Laerm;31671;48.092;11.842;2024-01-16T05:45:04;29.90;28.22;36.82;;
45964;Laerm;31671;48.092;11.842;2024-01-16T05:47:29;30.18;28.25;39.38;;
45964;Laerm;31671;48.092;11.842;2024-01-16T05:49:55;29.98;28.08;40.05;;
45964;Laerm;31671;48.092;11.842;2024-01-16T05:52:21;30.45;28.39;49.95;;
45964;Laerm;31671;48.092;11.842;2024-01-16T05:54:46;29.63;28.18;42.03;;
45964;Laerm;31671;48.092;11.842;2024-01-16T05:57:12;29.57;28.23;36.56;;
45964;Laerm;31671;48.092;11.842;2024-01-16T05:59:38;29.54;28.11;38.80;;
45964;Laerm;31671;48.092;11.842;2024-01-16T06:02:03;29.91;27.98;39.48;;
45964;Laerm;31671;48.092;11.842;2024-01-16T06:04:29;30.29;28.51;40.93;;
45964;Laerm;31671;48.092;11.842;2024-01-16T06:06:55;29.53;28.07;32.76;;
45964;Laerm;31671;48.092;11.842;2024-01-16T06:09:20;29.74;28.44;33.04;;
45964;Laerm;31671;48.092;11.842;2024-01-16T06:11:46;29.52;28.21;34.69;;
45964;Laerm;31671;48.092;11.842;2024-01-16T06:14:12;29.64;28.37;33.93;;
45964;Laerm;31671;48.092;11.842;2024-01-16T06:16:37;29.56;28.24;31.11;;
45964;Laerm;31671;48.092;11.842;2024-01-16T06:19:03;29.59;28.30;31.32;;
45964;Laerm;31671;48.092;11.842;2024-01-16T06:21:29;29.54;28.27;32.41;;
45964;Laerm;31671;48.092;11.842;2024-01-16T06:23:54;29.50;28.07;31.00;;
45964;Laerm;31671;48.092;11.842;2024-01-16T06:26:20;29.56;28.25;31.87;;
45964;Laerm;31671;48.092;11.842;2024-01-16T06:28:46;29.61;28.19;31.17;;
45964;Laerm;31671;48.092;11.842;2024-01-16T06:31:11;29.80;28.31;32.92;;
45964;Laerm;31671;48.092;11.842;2024-01-16T06:33:37;29.54;28.34;32.93;;
45964;Laerm;31671;48.092;11.842;2024-01-16T06:36:03;29.65;28.39;37.16;;
45964;Laerm;31671;48.092;11.842;2024-01-16T06:38:29;29.62;28.27;31.30;;
45964;Laerm;31671;48.092;11.842;2024-01-16T06:40:54;31.23;28.59;40.80;;
45964;Laerm;31671;48.092;11.842;2024-01-16T06:43:20;29.91;28.31;41.59;;
45964;Laerm;31671;48.092;11.842;2024-01-16T06:45:46;29.77;28.41;37.52;;
45964;Laerm;31671;48.092;11.842;2024-01-16T06:48:11;29.92;28.36;42.14;;
45964;Laerm;31671;48.092;11.842;2024-01-16T06:50:37;29.88;28.14;35.94;;
45964;Laerm;31671;48.092;11.842;2024-01-16T06:53:02;29.68;28.35;33.34;;
45964;Laerm;31671;48.092;11.842;2024-01-16T06:55:28;32.55;28.66;43.29;;
45964;Laerm;31671;48.092;11.842;2024-01-16T06:57:54;30.54;28.31;46.71;;
45964;Laerm;31671;48.092;11.842;2024-01-16T07:00:20;30.23;28.36;45.09;;
45964;Laerm;31671;48.092;11.842;2024-01-16T07:02:45;30.58;28.54;42.67;;
45964;Laerm;31671;48.092;11.842;2024-01-16T07:05:11;30.43;28.37;47.68;;
45964;Laerm;31671;48.092;11.842;2024-01-16T07:07:37;30.10;28.22;44.08;;
45964;Laerm;31671;48.092;11.842;2024-01-16T07:10:03;29.97;28.03;45.47;;
45964;Laerm;31671;48.092;11.842;2024-01-16T07:12:29;29.70;28.17;37.76;;
45964;Laerm;31671;48.092;11.842;2024-01-16T07:14:54;29.85;28.24;32.25;;
45964;Laerm;31671;48.092;11.842;2024-01-16T07:17:20;29.61;28.32;31.24;;
45964;Laerm;31671;48.092;11.842;2024-01-16T07:19:46;29.62;28.35;31.73;;
45964;Laerm;31671;48.092;11.842;2024-01-16T07:22:11;29.70;28.36;30.88;;
45964;Laerm;31671;48.092;11.842;2024-01-16T07:24:37;29.71;28.39;31.00;;
45964;Laerm;31671;48.092;11.842;2024-01-16T07:27:03;29.70;28.20;31.02;;
45964;Laerm;31671;48.092;11.842;2024-01-16T07:29:28;30.28;28.48;47.80;;
45964;Laerm;31671;48.092;11.842;2024-01-16T07:31:54;30.03;28.27;33.57;;
45964;Laerm;31671;48.092;11.842;2024-01-16T07:34:20;29.87;28.52;36.60;;
45964;Laerm;31671;48.092;11.842;2024-01-16T07:36:45;33.08;28.57;50.50;;
45964;Laerm;31671;48.092;11.842;2024-01-16T07:39:11;29.79;28.09;40.36;;
45964;Laerm;31671;48.092;11.842;2024-01-16T07:41:37;29.88;28.39;34.07;;
45964;Laerm;31671;48.092;11.842;2024-01-16T07:44:03;30.36;28.12;43.91;;
45964;Laerm;31671;48.092;11.842;2024-01-16T07:46:29;32.13;28.55;52.98;;
45964;Laerm;31671;48.092;11.842;2024-01-16T07:48:54;34.74;28.38;54.88;;
45964;Laerm;31671;48.092;11.842;2024-01-16T07:51:20;30.13;28.21;40.20;;
45964;Laerm;31671;48.092;11.842;2024-01-16T07:53:46;31.73;28.48;50.33;;
45964;Laerm;31671;48.092;11.842;2024-01-16T07:56:11;32.46;28.49;49.57;;
45964;Laerm;31671;48.092;11.842;2024-01-16T07:58:37;30.03;28.53;37.95;;
45964;Laerm;31671;48.092;11.842;2024-01-16T08:01:03;29.92;28.47;35.10;;
45964;Laerm;31671;48.092;11.842;2024-01-16T08:03:28;29.84;28.42;33.23;;
45964;Laerm;31671;48.092;11.842;2024-01-16T08:05:54;29.89;28.41;34.02;;
45964;Laerm;31671;48.092;11.842;2024-01-16T08:08:20;29.78;28.56;37.87;;
45964;Laerm;31671;48.092;11.842;2024-01-16T08:10:45;30.05;28.49;34.84;;
45964;Laerm;31671;48.092;11.842;2024-01-16T08:13:11;30.04;28.64;37.36;;
45964;Laerm;31671;48.092;11.842;2024-01-16T08:15:37;30.04;28.67;38.63;;
45964;Laerm;31671;48.092;11.842;2024-01-16T08:18:02;30.11;28.77;32.27;;
45964;Laerm;31671;48.092;11.842;2024-01-16T08:20:28;30.32;28.76;37.47;;
45964;Laerm;31671;48.092;11.842;2024-01-16T08:22:54;30.42;28.78;37.77;;
45964;Laerm;31671;48.092;11.842;2024-01-16T08:25:19;30.23;28.94;32.95;;
45964;Laerm;31671;48.092;11.842;2024-01-16T08:27:45;30.34;29.00;37.51;;
45964;Laerm;31671;48.092;11.842;2024-01-16T08:30:11;30.40;29.07;38.74;;
45964;Laerm;31671;48.092;11.842;2024-01-16T08:32:37;30.31;28.96;34.35;;
45964;Laerm;31671;48.092;11.842;2024-01-16T08:35:02;30.74;29.16;39.64;;
45964;Laerm;31671;48.092;11.842;2024-01-16T08:37:28;30.59;29.11;36.98;;
45964;Laerm;31671;48.092;11.842;2024-01-16T08:39:54;30.62;29.12;37.49;;
45964;Laerm;31671;48.092;11.842;2024-01-16T08:42:19;30.43;29.02;35.59;;
45964;Laerm;31671;48.092;11.842;2024-01-16T08:44:45;30.60;29.07;36.99;;
45964;Laerm;31671;48.092;11.842;2024-01-16T08:47:11;30.43;29.15;31.55;;
45964;Laerm;31671;48.092;11.842;2024-01-16T08:49:36;30.62;29.31;39.72;;
45964;Laerm;31671;48.092;11.842;2024-01-16T08:52:02;30.52;28.94;36.17;;
45964;Laerm;31671;48.092;11.842;2024-01-16T08:54:28;30.35;29.19;33.20;;
45964;Laerm;31671;48.092;11.842;2024-01-16T08:56:54;30.34;28.88;31.49;;
45964;Laerm;31671;48.092;11.842;2024-01-16T08:59:19;30.42;29.11;34.26;;
45964;Laerm;31671;48.092;11.842;2024-01-16T09:01:45;30.49;29.03;35.88;;
45964;Laerm;31671;48.092;11.842;2024-01-16T09:04:11;30.54;29.08;38.96;;
45964;Laerm;31671;48.092;11.842;2024-01-16T09:06:36;30.43;29.01;37.40;;
45964;Laerm;31671;48.092;11.842;2024-01-16T09:09:02;30.51;29.15;41.39;;
45964;Laerm;31671;48.092;11.842;2024-01-16T09:11:28;31.10;28.97;44.90;;
45964;Laerm;31671;48.092;11.842;2024-01-16T09:13:53;30.53;28.74;43.62;;
45964;Laerm;31671;48.092;11.842;2024-01-16T09:16:21;30.44;29.01;38.77;;
45964;Laerm;31671;48.092;11.842;2024-01-16T09:18:47;30.64;28.66;42.74;;
45964;Laerm;31671;48.092;11.842;2024-01-16T09:21:12;30.77;29.07;46.14;;
45964;Laerm;31671;48.092;11.842;2024-01-16T09:23:38;30.64;29.15;38.69;;
45964;Laerm;31671;48.092;11.842;2024-01-16T09:26:04;30.48;28.87;39.16;;
45964;Laerm;31671;48.092;11.842;2024-01-16T09:28:29;31.94;28.98;48.06;;
45964;Laerm;31671;48.092;11.842;2024-01-16T09:30:55;31.73;29.02;47.23;;
45964;Laerm;31671;48.092;11.842;2024-01-16T09:33:21;31.41;28.71;46.58;;
45964;Laerm;31671;48.092;11.842;2024-01-16T09:35:47;31.22;28.81;47.23;;
45964;Laerm;31671;48.092;11.842;2024-01-16T09:38:13;30.14;28.70;32.53;;
45964;Laerm;31671;48.092;11.842;2024-01-16T09:40:38;30.02;28.45;36.44;;
45964;Laerm;31671;48.092;11.842;2024-01-16T09:43:04;30.03;28.57;37.95;;
45964;Laerm;31671;48.092;11.842;2024-01-16T09:45:30;30.05;28.60;32.74;;
45964;Laerm;31671;48.092;11.842;2024-01-16T09:47:56;30.06;28.73;36.50;;
45964;Laerm;31671;48.092;11.842;2024-01-16T09:50:22;30.16;28.45;36.09;;
45964;Laerm;31671;48.092;11.842;2024-01-16T09:52:48;30.11;28.80;41.81;;
45964;Laerm;31671;48.092;11.842;2024-01-16T09:55:14;30.08;28.67;37.26;;
45964;Laerm;31671;48.092;11.842;2024-01-16T09:57:40;30.14;28.51;32.85;;
45964;Laerm;31671;48.092;11.842;2024-01-16T10:00:09;30.04;28.76;36.08;;
45964;Laerm;31671;48.092;11.842;2024-01-16T10:02:35;30.03;28.73;34.93;;
45964;Laerm;31671;48.092;11.842;2024-01-16T10:05:01;30.12;28.47;33.32;;
45964;Laerm;31671;48.092;11.842;2024-01-16T10:07:27;29.94;28.33;36.88;;
45964;Laerm;31671;48.092;11.842;2024-01-16T10:09:56;29.96;28.51;33.73;;
45964;Laerm;31671;48.092;11.842;2024-01-16T10:12:21;30.14;28.73;39.49;;
45964;Laerm;31671;48.092;11.842;2024-01-16T10:14:47;30.11;28.87;33.01;;
45964;Laerm;31671;48.092;11.842;2024-01-16T10:17:13;30.20;28.60;39.08;;
45964;Laerm;31671;48.092;11.842;2024-01-16T10:19:49;30.25;28.94;32.92;;
45964;Laerm;31671;48.092;11.842;2024-01-16T10:22:21;30.30;28.97;31.85;;
45964;Laerm;31671;48.092;11.842;2024-01-16T10:24:47;30.12;28.70;31.42;;
45964;Laerm;31671;48.092;11.842;2024-01-16T10:27:14;30.05;28.65;32.88;;
45964;Laerm;31671;48.092;11.842;2024-01-16T10:29:51;30.11;28.82;31.65;;
45964;Laerm;31671;48.092;11.842;2024-01-16T10:32:38;30.18;28.55;41.56;;
45964;Laerm;31671;48.092;11.842;2024-01-16T10:35:05;30.09;28.77;31.47;;
45964;Laerm;31671;48.092;11.842;2024-01-16T10:37:52;30.30;28.91;38.81;;
45964;Laerm;31671;48.092;11.842;2024-01-16T10:40:18;30.13;28.82;31.46;;
45964;Laerm;31671;48.092;11.842;2024-01-16T10:42:44;30.17;28.81;38.27;;
45964;Laerm;31671;48.092;11.842;2024-01-16T10:45:14;30.10;28.86;31.99;;
45964;Laerm;31671;48.092;11.842;2024-01-16T10:47:41;30.20;28.88;31.50;;
45964;Laerm;31671;48.092;11.842;2024-01-16T10:50:07;30.16;28.85;31.37;;
45964;Laerm;31671;48.092;11.842;2024-01-16T10:52:33;30.08;28.65;31.29;;
45964;Laerm;31671;48.092;11.842;2024-01-16T10:54:59;30.14;28.88;32.96;;
45964;Laerm;31671;48.092;11.842;2024-01-16T10:57:25;30.18;28.78;32.15;;
45964;Laerm;31671;48.092;11.842;2024-01-16T11:00:12;30.22;28.67;33.03;;
45964;Laerm;31671;48.092;11.842;2024-01-16T11:02:59;30.12;28.63;33.01;;
45964;Laerm;31671;48.092;11.842;2024-01-16T11:05:23;30.17;28.77;33.40;;
45964;Laerm;31671;48.092;11.842;2024-01-16T11:07:49;30.09;28.34;34.85;;
45964;Laerm;31671;48.092;11.842;2024-01-16T11:10:15;30.06;28.78;31.46;;
45964;Laerm;31671;48.092;11.842;2024-01-16T11:12:42;30.21;28.81;33.17;;
45964;Laerm;31671;48.092;11.842;2024-01-16T11:15:10;30.09;28.71;31.79;;
45964;Laerm;31671;48.092;11.842;2024-01-16T11:17:36;30.04;28.38;33.57;;
45964;Laerm;31671;48.092;11.842;2024-01-16T11:20:03;29.95;28.62;31.80;;
45964;Laerm;31671;48.092;11.842;2024-01-16T11:22:29;29.89;28.69;31.26;;
45964;Laerm;31671;48.092;11.842;2024-01-16T11:25:07;29.86;28.65;31.01;;
45964;Laerm;31671;48.092;11.842;2024-01-16T11:27:32;29.84;28.35;31.78;;
45964;Laerm;31671;48.092;11.842;2024-01-16T11:29:58;29.80;28.34;31.56;;
45964;Laerm;31671;48.092;11.842;2024-01-16T11:32:34;29.67;28.34;31.63;;
45964;Laerm;31671;48.092;11.842;2024-01-16T11:35:00;29.74;28.48;32.36;;
45964;Laerm;31671;48.092;11.842;2024-01-16T11:37:26;29.79;28.46;31.03;;
45964;Laerm;31671;48.092;11.842;2024-01-16T11:42:36;29.82;28.52;31.38;;
45964;Laerm;31671;48.092;11.842;2024-01-16T11:45:02;29.95;28.71;31.84;;
45964;Laerm;31671;48.092;11.842;2024-01-16T11:47:28;30.00;28.51;33.24;;
45964;Laerm;31671;48.092;11.842;2024-01-16T11:50:54;30.00;28.65;31.75;;
45964;Laerm;31671;48.092;11.842;2024-01-16T11:52:48;29.98;28.38;31.26;;
45964;Laerm;31671;48.092;11.842;2024-01-16T11:55:33;29.98;28.67;31.36;;
45964;Laerm;31671;48.092;11.842;2024-01-16T12:00:44;30.00;28.67;31.37;;
45964;Laerm;31671;48.092;11.842;2024-01-16T12:03:10;30.00;28.75;31.41;;
45964;Laerm;31671;48.092;11.842;2024-01-16T12:05:38;30.01;28.46;31.48;;
45964;Laerm;31671;48.092;11.842;2024-01-16T12:08:05;30.01;28.60;31.30;;
45964;Laerm;31671;48.092;11.842;2024-01-16T12:10:30;30.21;28.74;33.21;;
45964;Laerm;31671;48.092;11.842;2024-01-16T12:12:57;30.00;28.60;31.87;;
45964;Laerm;31671;48.092;11.842;2024-01-16T12:15:23;29.94;28.57;31.20;;
45964;Laerm;31671;48.092;11.842;2024-01-16T12:17:52;30.07;28.56;31.37;;
45964;Laerm;31671;48.092;11.842;2024-01-16T12:20:18;30.08;28.74;32.35;;
45964;Laerm;31671;48.092;11.842;2024-01-16T12:22:44;30.20;28.88;37.70;;
45964;Laerm;31671;48.092;11.842;2024-01-16T12:25:09;30.13;28.62;34.05;;
45964;Laerm;31671;48.092;11.842;2024-01-16T12:27:35;30.30;28.73;38.22;;
45964;Laerm;31671;48.092;11.842;2024-01-16T12:30:04;30.72;28.57;41.05;;
45964;Laerm;31671;48.092;11.842;2024-01-16T12:32:30;30.16;28.70;40.08;;
45964;Laerm;31671;48.092;11.842;2024-01-16T12:34:55;30.05;28.55;31.58;;
45964;Laerm;31671;48.092;11.842;2024-01-16T12:37:21;29.97;28.65;31.79;;
45964;Laerm;31671;48.092;11.842;2024-01-16T12:39:47;30.04;28.66;34.27;;
45964;Laerm;31671;48.092;11.842;2024-01-16T12:42:12;30.02;28.75;44.04;;
45964;Laerm;31671;48.092;11.842;2024-01-16T12:44:38;30.00;28.66;40.62;;
45964;Laerm;31671;48.092;11.842;2024-01-16T12:47:04;30.08;28.66;39.65;;
45964;Laerm;31671;48.092;11.842;2024-01-16T12:49:30;29.92;28.42;31.54;;
45964;Laerm;31671;48.092;11.842;2024-01-16T12:55:00;29.83;28.26;32.63;;
45964;Laerm;31671;48.092;11.842;2024-01-16T12:57:26;29.81;28.27;31.14;;
45964;Laerm;31671;48.092;11.842;2024-01-16T12:59:51;29.67;28.04;31.01;;
45964;Laerm;31671;48.092;11.842;2024-01-16T13:02:21;29.74;28.32;31.46;;
45964;Laerm;31671;48.092;11.842;2024-01-16T13:04:47;29.64;28.20;30.98;;
45964;Laerm;31671;48.092;11.842;2024-01-16T13:07:15;29.54;28.10;31.94;;
45964;Laerm;31671;48.092;11.842;2024-01-16T13:09:41;29.57;28.18;30.87;;
45964;Laerm;31671;48.092;11.842;2024-01-16T13:12:07;29.54;28.22;32.91;;
45964;Laerm;31671;48.092;11.842;2024-01-16T13:14:33;29.56;28.14;30.89;;
45964;Laerm;31671;48.092;11.842;2024-01-16T13:16:58;29.56;28.24;30.81;;
45964;Laerm;31671;48.092;11.842;2024-01-16T13:19:24;29.65;28.49;30.82;;
45964;Laerm;31671;48.092;11.842;2024-01-16T13:21:50;29.71;28.17;32.19;;
45964;Laerm;31671;48.092;11.842;2024-01-16T13:24:15;29.64;28.28;33.08;;
45964;Laerm;31671;48.092;11.842;2024-01-16T13:26:41;29.77;28.40;32.32;;
45964;Laerm;31671;48.092;11.842;2024-01-16T13:29:07;29.88;28.41;33.56;;
45964;Laerm;31671;48.092;11.842;2024-01-16T13:31:33;29.80;28.47;33.04;;
45964;Laerm;31671;48.092;11.842;2024-01-16T13:33:58;29.80;28.62;33.15;;
45964;Laerm;31671;48.092;11.842;2024-01-16T13:36:24;29.94;28.49;34.29;;